• Join FlightAware (Why Join?)
  • Login
  • US Flag 
04:12AM EDT


 

Airport Tracker/Info


-or-


 

Live Flight TrackerFlight Track Log ✈ KAP927 ✈ 04-May-2013 ✈ KOGS - KALB

Flight Track Log - Related Links

Times and Time Zones

All times are in EDT time to prevent confusion due to time zone crossing. See the KAP927 flight status page for this flight to view local times or setup timezone preferences in your user account.

Time Position Orientation Groundspeed Altitude Reporting Facility
EDT Latitude Longitude Course Direction KTS MPH feet Rate Location/Type
06:54AM 44.5403 -75.3061 148° Southeast 156 180 4,300  Level Boston Center
06:55AM 44.5075 -75.2814 152° Southeast 151 174 5,100 720 Climbing Boston Center
06:56AM 44.4769 -75.2536 147° Southeast 139 160 5,800 660 Climbing Boston Center
06:57AM 44.4486 -75.2261 145° Southeast 132 152 6,500 660 Climbing Boston Center
06:58AM 44.4158 -75.1983 149° Southeast 132 152 7,200 480 Climbing Boston Center
06:59AM 44.5222 -75.3231 149° Southeast  Level Estimated
06:59AM 44.3811 -75.1736 153° Southeast 138 159 7,500  Level Boston Center
07:00AM 44.4878 -75.2931 148° Southeast  Level FlightAware Approximate
07:00AM 44.3442 -75.1400 147° Southeast 143 165 7,500  Level Boston Center
07:01AM 44.2994 -75.0972 146° Southeast 154 177 7,500  Level Boston Center
07:02AM 44.2606 -75.0636 148° Southeast 159 183 7,500  Level Boston Center
07:03AM 44.2217 -75.0300 148° Southeast 159 183 7,500  Level Boston Center
07:04AM 44.1850 -74.9967 147° Southeast 164 189 7,500  Level Boston Center
07:05AM 44.1461 -74.9631 148° Southeast 164 189 7,500  Level Boston Center
07:06AM 44.1050 -74.9325 152° Southeast 164 189 7,500  Level Boston Center
07:07AM 44.0683 -74.8992 147° Southeast 164 189 7,500 -60 Level Boston Center
07:08AM 44.0275 -74.8628 147° Southeast 164 189 7,400 -60 Descending Boston Center
07:09AM 43.9883 -74.8322 151° Southeast 164 189 7,400  Level Boston Center
07:10AM 43.9517 -74.7992 147° Southeast 164 189 7,400  Level Boston Center
07:11AM 43.9106 -74.7658 150° Southeast 164 189 7,500  Climbing Boston Center
07:12AM 43.8717 -74.7325 148° Southeast 164 189 7,500  Level Boston Center
07:13AM 43.8328 -74.6994 148° Southeast 164 189 7,500  Level Boston Center
07:14AM 43.7958 -74.6664 147° Southeast 164 189 7,500  Level Boston Center
07:15AM 43.7547 -74.6333 150° Southeast 164 189 7,500  Level Boston Center
07:16AM 43.7181 -74.6003 147° Southeast 164 189 7,500  Level Boston Center
07:17AM 43.6789 -74.5703 151° Southeast 164 189 7,500  Level Boston Center
07:18AM 43.6400 -74.5372 148° Southeast 164 189 7,500  Level Boston Center
07:19AM 43.6031 -74.5044 147° Southeast 164 189 7,500  Level Boston Center
07:20AM 43.5639 -74.4717 149° Southeast 164 189 7,500  Level Boston Center
07:21AM 43.5228 -74.4417 152° Southeast 164 189 7,500  Level Boston Center
07:22AM 43.4839 -74.4058 146° Southeast 164 189 7,500  Level Boston Center
07:23AM 43.4736 -74.4028 168° South 166 191 7,500  Level Boston Center
07:23AM 43.4447 -74.3733 143° Southeast 164 189 7,500  Level Boston Center
07:24AM 43.4222 -74.3553 150° Southeast 167 192 7,500  Level Boston Center
07:24AM 43.4036 -74.3406 150° Southeast 164 189 7,500  Level Boston Center
07:25AM 43.3792 -74.3197 148° Southeast 167 192 7,500  Level Boston Center
07:25AM 43.3647 -74.3050 143° Southeast 164 189 7,500  Level Boston Center
07:26AM 43.3419 -74.2872 150° Southeast 166 191 7,500  Level Boston Center
07:26AM 43.3256 -74.2725 147° Southeast 164 189 7,500  Level Boston Center
07:27AM 43.3008 -74.2544 152° Southeast 166 191 7,500  Level Boston Center
07:27AM 43.2906 -74.2428 140° Southeast 164 189 7,500 -240 Level Boston Center
07:28AM 43.2617 -74.2219 152° Southeast 166 191 7,300 -360 Descending Boston Center
07:29AM 43.2372 -74.2014 149° Southeast 164 189 7,100 -420 Descending Boston Center
07:29AM 43.2206 -74.1922 158° South 175 201 6,900 -300 Descending Boston Center
07:30AM 43.1981 -74.1717 146° Southeast 169 194 6,800 -420 Descending Boston Center
07:30AM 43.1753 -74.1569 155° Southeast 174 200 6,500 -540 Descending Boston Center
07:31AM 43.1547 -74.1364 144° Southeast 169 194 6,300 -420 Descending Boston Center
07:31AM 43.1361 -74.1217 150° Southeast 172 198 6,100 -420 Descending Boston Center
07:32AM 43.1178 -74.1069 150° Southeast 169 194 5,900 -540 Descending Boston Center
07:32AM 43.0931 -74.0864 149° Southeast 170 196 5,600 -600 Descending Boston Center
07:33AM 43.0725 -74.0658 144° Southeast 169 194 5,300 -600 Descending Boston Center
07:33AM 43.0517 -74.0539 157° South 174 200 5,000 -600 Descending Boston Center
07:34AM 43.0353 -74.0364 142° Southeast 174 200 4,700 -720 Descending Boston Center
07:34AM 43.0106 -74.0189 153° Southeast 178 205 4,300 -720 Descending Boston Center
07:35AM 42.9878 -73.9983 147° Southeast 179 206 4,000 -720 Descending Boston Center
07:35AM 42.9714 -73.9867 152° Southeast 179 206 3,700 -540 Descending Boston Center
07:36AM 42.9550 -73.9633 134° Southeast 179 206 3,500 -540 Descending Boston Center
07:36AM 42.9344 -73.9403 141° Southeast 174 200 3,200 -420 Descending Boston Center
07:37AM 42.9139 -73.9142 137° Southeast 179 206 3,100 -120 Descending Boston Center
07:37AM 42.8975 -73.8911 134° Southeast 160 184 3,100  Level Boston Center
07:38AM 42.8872 -73.8767 134° Southeast 167 192 3,100 -600 Level Boston Center
07:38AM 42.8669 -73.8422 129° Southeast 163 188 2,500 -900 Descending Boston Center
07:39AM 42.8256 -73.8103 150° Southeast 164 189 1,700 -840 Descending Boston Center
07:40AM 42.7839 -73.8064 176° South 144 166 900 -840 Descending Boston Center
07:42AM 42.7491 -73.8020 175° South  Level Estimated
07:49AM 42.7491 -73.8020 160° South  Level Estimated
07:50AM 42.7491 -73.8020 160° South  Level Estimated
07:51AM 42.7491 -73.8020 160° South  Level Estimated
07:52AM 42.7491 -73.8020 160° South  Level Estimated